Time;durP1;ratioP1;P1;durP2;ratioP2;P2;SDS_P1;SDS_P2;PMS_P1;PMS_P2;Temp;Humidity;BMP_temperature;BMP_pressure;BME280_temperature;BME280_humidity;BME280_pressure;Samples;Min_cycle;Max_cycle;Signal;HPM_P1;HPM_P2
2021/04/27 00:00:13;;;;;;;8.05;5.90;;;7.70;74.20;;;;;;5012712;28;20185;-78
2021/04/27 00:02:40;;;;;;;8.60;5.72;;;7.70;75.00;;;;;;5011261;28;20579;-78
2021/04/27 00:05:08;;;;;;;6.65;5.70;;;7.60;75.30;;;;;;5012307;28;20197;-78
2021/04/27 00:07:35;;;;;;;10.75;5.28;;;7.50;74.30;;;;;;5012385;28;20309;-78
2021/04/27 00:10:06;;;;;;;8.68;5.88;;;7.40;73.70;;;;;;5008940;28;20189;-78
2021/04/27 00:12:32;;;;;;;7.20;5.57;;;7.30;73.70;;;;;;4996686;28;20309;-78
2021/04/27 00:14:59;;;;;;;7.25;5.88;;;7.20;73.10;;;;;;5011053;28;20664;-78
2021/04/27 00:17:25;;;;;;;7.00;5.57;;;7.20;74.90;;;;;;5011840;28;20648;-78
2021/04/27 00:19:51;;;;;;;14.13;6.00;;;7.20;73.60;;;;;;4991953;28;20196;-78
2021/04/27 00:22:18;;;;;;;6.90;5.75;;;7.20;72.70;;;;;;5010714;28;20759;-78
2021/04/27 00:24:44;;;;;;;6.57;5.30;;;7.20;73.70;;;;;;5010568;28;20198;-79
2021/04/27 00:27:11;;;;;;;9.02;6.00;;;7.30;73.70;;;;;;5011623;28;20252;-78
2021/04/27 00:29:37;;;;;;;8.60;4.55;;;7.30;73.50;;;;;;5012341;28;20551;-78
2021/04/27 00:32:04;;;;;;;11.95;5.95;;;7.30;72.60;;;;;;5012014;28;20691;-78
2021/04/27 00:34:30;;;;;;;6.95;5.47;;;7.20;74.50;;;;;;5011035;28;20190;-79
2021/04/27 00:36:57;;;;;;;6.63;4.25;;;7.10;74.20;;;;;;5011737;28;20237;-78
2021/04/27 00:39:24;;;;;;;9.15;5.95;;;7.10;73.60;;;;;;5012098;28;20268;-78
2021/04/27 00:41:50;;;;;;;6.70;5.47;;;7.00;72.60;;;;;;5010584;28;20280;-78
2021/04/27 00:44:16;;;;;;;8.02;5.30;;;7.00;72.90;;;;;;5012181;28;20178;-78
2021/04/27 00:46:44;;;;;;;12.02;6.28;;;7.00;73.00;;;;;;5011475;28;20198;-78
2021/04/27 00:49:11;;;;;;;11.27;5.25;;;6.90;73.50;;;;;;5010669;28;20241;-78
2021/04/27 00:51:38;;;;;;;6.85;5.10;;;6.90;73.80;;;;;;5011720;28;20256;-78
2021/04/27 00:54:07;;;;;;;6.03;5.20;;;6.90;74.90;;;;;;5012083;28;20264;-78
2021/04/27 00:56:35;;;;;;;7.65;6.70;;;6.90;74.00;;;;;;5010400;28;20217;-78
2021/04/27 00:59:03;;;;;;;7.28;5.65;;;6.90;74.20;;;;;;5010313;28;20213;-78
2021/04/27 01:01:31;;;;;;;6.60;5.90;;;6.90;74.10;;;;;;5011324;28;20221;-78
2021/04/27 01:04:00;;;;;;;9.30;5.85;;;6.80;74.00;;;;;;5010838;28;20221;-78
2021/04/27 01:06:27;;;;;;;6.85;5.65;;;6.80;75.20;;;;;;5010451;28;20213;-78
2021/04/27 01:09:01;;;;;;;6.85;5.82;;;6.70;75.50;;;;;;5010974;28;20304;-78
2021/04/27 01:11:34;;;;;;;5.70;4.70;;;6.70;75.10;;;;;;5009638;28;20236;-78
2021/04/27 01:14:09;;;;;;;6.75;5.40;;;6.60;75.90;;;;;;5010552;28;20232;-78
2021/04/27 01:16:41;;;;;;;6.15;5.40;;;6.60;75.50;;;;;;4990276;28;20209;-78
2021/04/27 01:19:18;;;;;;;7.05;5.22;;;6.60;74.90;;;;;;5004993;28;20436;-78
2021/04/27 01:21:48;;;;;;;8.15;5.68;;;6.60;74.80;;;;;;4994122;28;20591;-78
2021/04/27 01:24:23;;;;;;;11.38;6.32;;;6.50;76.90;;;;;;5010375;28;20182;-78
2021/04/27 01:26:58;;;;;;;7.20;5.82;;;6.50;77.70;;;;;;5009888;28;20213;-78
2021/04/27 01:29:28;;;;;;;7.15;5.28;;;6.50;78.20;;;;;;5009285;28;20240;-78
2021/04/27 01:31:58;;;;;;;5.68;5.18;;;6.50;76.80;;;;;;5010309;28;20316;-78
2021/04/27 01:34:27;;;;;;;8.48;5.30;;;6.50;77.00;;;;;;5011500;28;20186;-78
2021/04/27 01:36:54;;;;;;;5.65;4.93;;;6.50;77.70;;;;;;5010705;28;20304;-78
2021/04/27 01:39:25;;;;;;;9.30;5.05;;;6.40;77.60;;;;;;5026300;28;20184;-78
2021/04/27 01:41:55;;;;;;;8.40;5.90;;;6.40;77.90;;;;;;5009377;28;20638;-78
2021/04/27 01:44:23;;;;;;;7.05;5.55;;;6.30;80.40;;;;;;5010207;28;20523;-78
2021/04/27 01:46:50;;;;;;;7.75;6.07;;;6.20;80.90;;;;;;5011347;28;20205;-78
2021/04/27 01:49:17;;;;;;;7.90;6.65;;;6.20;81.00;;;;;;5009874;28;20656;-78
2021/04/27 01:52:07;;;;;;;7.45;5.82;;;6.00;80.80;;;;;;5010439;28;20229;-78
2021/04/27 01:54:45;;;;;;;7.25;5.10;;;5.90;82.10;;;;;;4976149;28;20195;-78
2021/04/27 01:57:12;;;;;;;5.93;5.15;;;5.90;81.50;;;;;;5010856;28;20224;-78
2021/04/27 01:59:41;;;;;;;7.50;5.38;;;;;;;;;;4994021;28;20248;-77
2021/04/27 02:02:13;;;;;;;13.50;7.07;;;5.80;81.90;;;;;;5009184;28;20632;-78
2021/04/27 02:04:43;;;;;;;9.45;6.70;;;5.60;84.00;;;;;;5010322;28;20186;-78
2021/04/27 02:07:47;;;;;;;8.10;5.65;;;5.50;84.20;;;;;;5042206;28;20233;-78
2021/04/27 02:10:14;;;;;;;7.25;5.90;;;5.50;83.80;;;;;;5036954;28;20197;-78
2021/04/27 02:12:48;;;;;;;6.30;5.55;;;5.60;82.20;;;;;;5011197;28;20230;-78
2021/04/27 02:15:17;;;;;;;7.53;6.32;;;5.70;80.60;;;;;;5014998;28;20269;-77
2021/04/27 02:17:47;;;;;;;7.43;5.45;;;5.80;78.60;;;;;;5013949;28;20222;-78
2021/04/27 02:20:15;;;;;;;9.10;6.00;;;5.90;77.50;;;;;;5012448;28;20417;-78
2021/04/27 02:23:05;;;;;;;6.53;5.78;;;6.00;76.30;;;;;;5004826;28;20704;-78
2021/04/27 02:25:53;;;;;;;7.40;5.90;;;6.10;77.20;;;;;;5009574;28;20234;-78
2021/04/27 02:28:22;;;;;;;10.15;6.43;;;6.10;76.40;;;;;;5006272;28;20217;-78
2021/04/27 02:30:49;;;;;;;7.03;4.65;;;6.10;76.10;;;;;;5014585;28;20190;-77
2021/04/27 02:33:20;;;;;;;11.77;5.60;;;6.10;76.20;;;;;;5014060;28;20221;-78
2021/04/27 02:35:49;;;;;;;7.55;6.15;;;6.00;76.20;;;;;;4984513;28;20647;-78
2021/04/27 02:38:42;;;;;;;7.72;5.70;;;6.00;77.60;;;;;;5003110;28;20650;-78
2021/04/27 02:41:15;;;;;;;9.85;5.63;;;5.90;78.40;;;;;;5012358;28;20218;-78
2021/04/27 02:43:43;;;;;;;6.07;5.00;;;5.80;78.80;;;;;;5012609;28;20658;-78
2021/04/27 02:46:09;;;;;;;7.72;5.55;;;5.80;80.60;;;;;;5012216;28;20220;-78
2021/04/27 02:48:47;;;;;;;9.18;5.63;;;5.60;82.10;;;;;;5011528;28;20214;-78
2021/04/27 02:51:19;;;;;;;10.20;6.10;;;5.50;83.20;;;;;;5013734;28;20194;-78
2021/04/27 02:53:55;;;;;;;9.77;5.60;;;5.50;83.30;;;;;;5012668;28;20260;-78
2021/04/27 02:56:22;;;;;;;12.02;5.72;;;5.40;84.20;;;;;;4991886;28;20217;-78
2021/04/27 02:58:51;;;;;;;7.13;5.78;;;5.30;84.40;;;;;;5011972;28;20220;-78
2021/04/27 03:01:19;;;;;;;7.88;5.65;;;5.30;85.40;;;;;;5012307;28;20725;-78
2021/04/27 03:03:46;;;;;;;7.68;5.97;;;5.30;85.80;;;;;;5012032;28;20232;-78
2021/04/27 03:06:12;;;;;;;7.72;5.80;;;5.20;85.60;;;;;;5027512;28;20263;-78
2021/04/27 03:08:56;;;;;;;10.98;5.90;;;5.10;85.90;;;;;;5025816;28;20217;-78
2021/04/27 03:11:24;;;;;;;8.68;6.00;;;5.10;87.20;;;;;;5011809;28;20193;-77
2021/04/27 03:13:53;;;;;;;7.75;6.78;;;5.00;88.30;;;;;;5011220;28;20654;-78
2021/04/27 03:16:22;;;;;;;9.73;5.90;;;4.90;89.20;;;;;;5012675;28;20284;-78
2021/04/27 03:18:51;;;;;;;10.18;7.20;;;4.80;90.00;;;;;;5011609;28;20475;-78
2021/04/27 03:21:20;;;;;;;7.93;5.88;;;4.80;90.50;;;;;;5013478;28;20277;-78
2021/04/27 03:23:49;;;;;;;9.05;6.22;;;4.90;90.70;;;;;;5011670;28;20213;-78
2021/04/27 03:26:16;;;;;;;8.85;6.20;;;4.90;90.30;;;;;;5008523;28;20410;-78
2021/04/27 03:28:55;;;;;;;7.90;5.90;;;4.90;90.50;;;;;;5026504;28;20245;-78
2021/04/27 03:31:23;;;;;;;11.95;7.10;;;4.90;90.50;;;;;;5012435;28;20194;-77
2021/04/27 03:33:50;;;;;;;14.80;7.75;;;4.70;91.40;;;;;;5011917;28;20560;-78
2021/04/27 03:36:17;;;;;;;8.50;6.63;;;4.70;90.80;;;;;;5012409;28;20212;-78
2021/04/27 03:38:50;;;;;;;7.70;5.50;;;4.70;90.50;;;;;;5011505;28;20897;-78
2021/04/27 03:41:18;;;;;;;11.38;6.40;;;4.70;90.40;;;;;;5011446;28;20245;-78
2021/04/27 03:43:45;;;;;;;8.90;6.30;;;4.60;90.60;;;;;;5011317;28;20736;-78
2021/04/27 03:46:12;;;;;;;8.25;5.57;;;4.70;90.50;;;;;;5011227;28;20206;-78
2021/04/27 03:48:39;;;;;;;9.07;6.20;;;4.70;90.60;;;;;;5021444;28;20217;-78
2021/04/27 03:51:06;;;;;;;9.82;6.55;;;4.60;90.80;;;;;;5008831;28;20213;-78
2021/04/27 03:53:41;;;;;;;9.60;7.10;;;4.60;91.10;;;;;;5012820;28;20313;-78
2021/04/27 03:56:14;;;;;;;10.77;6.80;;;4.60;91.30;;;;;;5009681;28;20217;-78
2021/04/27 03:58:41;;;;;;;7.40;6.70;;;4.50;91.30;;;;;;5010986;28;20283;-78
2021/04/27 04:01:10;;;;;;;7.32;5.70;;;4.50;91.40;;;;;;5011546;28;20194;-78
2021/04/27 04:03:41;;;;;;;11.43;7.07;;;4.50;91.60;;;;;;5010147;28;20757;-78
2021/04/27 04:06:10;;;;;;;8.20;6.65;;;4.40;91.80;;;;;;5011307;28;20210;-78
2021/04/27 04:08:52;;;;;;;7.57;6.57;;;4.40;92.10;;;;;;5012314;28;20588;-77
2021/04/27 04:11:22;;;;;;;8.85;6.78;;;4.40;92.20;;;;;;5009702;28;20208;-78
2021/04/27 04:13:48;;;;;;;8.38;6.68;;;4.30;92.30;;;;;;5010688;28;20718;-78
2021/04/27 04:16:16;;;;;;;7.60;6.30;;;4.30;92.10;;;;;;5011043;28;20209;-77
2021/04/27 04:18:43;;;;;;;14.75;7.28;;;4.30;91.80;;;;;;5010710;28;20221;-78
2021/04/27 04:21:10;;;;;;;10.98;6.80;;;4.40;91.90;;;;;;5010770;28;20193;-78
2021/04/27 04:23:59;;;;;;;8.98;6.80;;;4.30;91.90;;;;;;5011199;28;20300;-78
2021/04/27 04:26:28;;;;;;;9.45;7.07;;;4.40;92.10;;;;;;5011245;28;20630;-78
2021/04/27 04:29:15;;;;;;;8.82;5.88;;;4.40;92.10;;;;;;5011618;28;20229;-78
2021/04/27 04:31:55;;;;;;;8.02;6.60;;;4.30;92.10;;;;;;5010638;28;20229;-78
2021/04/27 04:34:41;;;;;;;11.50;7.10;;;4.40;91.50;;;;;;5011022;28;20702;-78
2021/04/27 04:37:46;;;;;;;11.70;7.18;;;4.40;91.30;;;;;;4963738;28;20626;-78
2021/04/27 04:40:33;;;;;;;11.93;6.85;;;4.50;91.20;;;;;;4956680;28;20669;-78
2021/04/27 04:43:26;;;;;;;8.75;6.10;;;4.50;91.10;;;;;;4994078;28;20221;-78
2021/04/27 04:46:12;;;;;;;13.27;6.43;;;4.60;90.80;;;;;;4992749;28;20702;-78
2021/04/27 04:48:58;;;;;;;8.95;6.50;;;4.70;90.40;;;;;;5006431;28;20356;-78
2021/04/27 04:51:33;;;;;;;7.28;6.38;;;4.70;90.20;;;;;;4975615;28;20713;-78
2021/04/27 04:54:05;;;;;;;8.27;5.43;;;4.70;90.20;;;;;;5032104;28;20682;-78
2021/04/27 04:56:35;;;;;;;8.65;6.90;;;4.80;89.90;;;;;;5009485;28;20214;-78
2021/04/27 04:59:02;;;;;;;7.93;6.18;;;4.80;89.50;;;;;;5011889;28;20228;-78
2021/04/27 05:01:32;;;;;;;7.85;6.30;;;4.90;89.10;;;;;;5009906;28;20197;-78
2021/04/27 05:04:24;;;;;;;8.07;6.07;;;4.90;89.40;;;;;;5010752;28;20225;-78
2021/04/27 05:07:13;;;;;;;6.72;5.97;;;5.00;89.20;;;;;;5011348;28;20220;-78
2021/04/27 05:10:13;;;;;;;8.63;6.35;;;5.00;87.80;;;;;;4969454;28;20194;-78
2021/04/27 05:12:52;;;;;;;9.48;6.68;;;5.10;89.20;;;;;;5010016;28;20252;-78
2021/04/27 05:15:19;;;;;;;7.32;6.47;;;5.10;90.00;;;;;;5010660;28;20198;-78
2021/04/27 05:17:47;;;;;;;10.27;6.47;;;5.10;90.40;;;;;;5010410;28;20628;-78
2021/04/27 05:20:15;;;;;;;8.70;5.75;;;5.20;90.80;;;;;;5010166;28;20189;-78
2021/04/27 05:22:46;;;;;;;8.25;5.68;;;5.30;89.30;;;;;;4994426;28;20299;-78
2021/04/27 05:25:14;;;;;;;9.27;6.55;;;5.40;89.80;;;;;;5008785;28;20315;-78
2021/04/27 05:27:54;;;;;;;8.60;6.32;;;5.40;88.90;;;;;;5009398;28;20210;-78
2021/04/27 05:30:21;;;;;;;6.93;5.28;;;5.60;85.90;;;;;;5003624;28;20604;-78
2021/04/27 05:32:48;;;;;;;8.95;6.72;;;5.70;85.40;;;;;;5006972;28;20271;-78
2021/04/27 05:35:14;;;;;;;8.80;5.50;;;5.70;85.00;;;;;;5010990;28;20238;-78
2021/04/27 05:37:40;;;;;;;10.20;7.60;;;5.90;83.50;;;;;;5009842;28;20593;-78
2021/04/27 05:40:09;;;;;;;6.80;6.10;;;6.00;83.00;;;;;;5015797;28;20289;-78
2021/04/27 05:42:36;;;;;;;6.57;5.95;;;6.10;85.00;;;;;;5011230;28;20691;-78
2021/04/27 05:45:04;;;;;;;10.30;6.93;;;6.30;81.90;;;;;;5009766;28;20186;-77
2021/04/27 05:47:30;;;;;;;7.03;5.65;;;6.40;82.40;;;;;;5014792;28;20675;-78
2021/04/27 05:49:57;;;;;;;9.90;6.50;;;6.50;80.10;;;;;;5010075;28;20722;-78
2021/04/27 05:52:24;;;;;;;7.97;6.45;;;6.60;79.40;;;;;;5004184;28;20310;-78
2021/04/27 05:54:50;;;;;;;7.95;7.25;;;6.70;78.90;;;;;;5013472;28;20190;-78
2021/04/27 05:57:16;;;;;;;13.20;6.20;;;6.80;78.70;;;;;;5014382;28;20229;-78
2021/04/27 05:59:43;;;;;;;7.35;6.20;;;7.00;78.40;;;;;;5014576;28;20276;-78
2021/04/27 06:02:09;;;;;;;10.43;6.03;;;7.20;76.30;;;;;;5012949;28;20226;-78
2021/04/27 06:04:36;;;;;;;7.00;6.30;;;7.40;76.90;;;;;;5013436;28;20190;-78
2021/04/27 06:07:07;;;;;;;13.40;7.13;;;7.50;75.70;;;;;;5013247;28;20225;-79
2021/04/27 06:09:35;;;;;;;7.70;5.85;;;7.60;75.80;;;;;;5014633;28;20260;-79
2021/04/27 06:12:01;;;;;;;7.10;5.97;;;7.70;74.20;;;;;;5013169;28;20230;-78
2021/04/27 06:14:27;;;;;;;6.47;5.47;;;8.00;73.40;;;;;;5013969;28;20678;-78
2021/04/27 06:16:54;;;;;;;8.88;6.30;;;8.40;71.80;;;;;;5013483;28;20232;-78
2021/04/27 06:19:23;;;;;;;9.00;6.60;;;8.70;70.50;;;;;;5012877;28;20543;-78
2021/04/27 06:21:50;;;;;;;8.50;6.07;;;9.00;68.70;;;;;;4997992;28;20659;-78
2021/04/27 06:24:16;;;;;;;9.55;6.68;;;9.40;67.40;;;;;;5014436;28;20190;-78
2021/04/27 06:26:43;;;;;;;7.20;6.20;;;9.50;68.60;;;;;;5012711;28;20213;-78
2021/04/27 06:29:09;;;;;;;6.30;5.60;;;9.90;66.80;;;;;;5014026;28;20190;-78
2021/04/27 06:31:39;;;;;;;6.07;5.20;;;10.00;63.20;;;;;;5012849;28;20182;-78
2021/04/27 06:34:06;;;;;;;9.25;5.43;;;10.10;65.30;;;;;;4988136;28;20191;-78
2021/04/27 06:36:36;;;;;;;9.40;5.97;;;10.20;63.90;;;;;;5017197;28;20679;-78
2021/04/27 06:39:05;;;;;;;5.97;5.20;;;10.30;63.30;;;;;;5012906;28;20186;-78
2021/04/27 06:41:33;;;;;;;9.40;6.20;;;10.20;61.90;;;;;;5008075;28;20305;-78
2021/04/27 06:44:01;;;;;;;6.83;4.57;;;10.30;61.30;;;;;;5010952;28;20199;-78
2021/04/27 06:46:31;;;;;;;6.97;4.82;;;10.50;58.90;;;;;;5013256;28;20453;-78
2021/04/27 06:48:58;;;;;;;8.50;4.93;;;10.60;59.60;;;;;;5011217;28;20312;-78
2021/04/27 06:51:26;;;;;;;5.75;4.68;;;10.70;58.60;;;;;;5009932;28;20187;-78
2021/04/27 06:53:52;;;;;;;6.22;4.50;;;10.70;58.90;;;;;;5008055;28;20251;-78
2021/04/27 06:56:19;;;;;;;6.82;4.43;;;10.60;58.10;;;;;;5000032;28;20211;-78
2021/04/27 06:58:46;;;;;;;5.25;4.55;;;10.50;58.60;;;;;;5013651;28;20214;-78
2021/04/27 07:01:12;;;;;;;9.65;4.55;;;10.30;59.10;;;;;;5014192;28;20277;-78
2021/04/27 07:03:41;;;;;;;5.05;4.30;;;10.30;60.60;;;;;;5012430;28;20709;-78
2021/04/27 07:06:08;;;;;;;6.40;4.40;;;10.10;58.90;;;;;;5013499;28;20225;-78
2021/04/27 07:08:34;;;;;;;6.43;4.88;;;10.10;61.10;;;;;;5008300;28;20218;-78
2021/04/27 07:11:05;;;;;;;5.95;5.07;;;10.00;61.30;;;;;;5004726;28;20194;-77
2021/04/27 07:13:31;;;;;;;4.72;3.92;;;10.00;60.30;;;;;;5012997;28;20304;-78
2021/04/27 07:16:01;;;;;;;5.20;4.20;;;10.10;61.60;;;;;;5013435;28;20276;-78
2021/04/27 07:18:31;;;;;;;6.65;3.75;;;10.20;59.70;;;;;;5001317;28;20297;-78
2021/04/27 07:20:57;;;;;;;6.82;4.30;;;10.30;59.90;;;;;;5013756;28;20206;-78
2021/04/27 07:23:24;;;;;;;6.82;4.03;;;10.40;58.70;;;;;;5012517;28;20252;-78
2021/04/27 07:25:51;;;;;;;4.38;3.97;;;10.50;58.00;;;;;;5011997;28;20229;-78
2021/04/27 07:28:17;;;;;;;4.18;3.60;;;10.60;57.50;;;;;;5011255;28;20236;-79
2021/04/27 07:30:45;;;;;;;5.65;3.80;;;10.70;54.90;;;;;;5011120;28;20190;-78
2021/04/27 07:33:11;;;;;;;11.10;3.95;;;10.70;55.70;;;;;;5009712;28;20301;-78
2021/04/27 07:35:38;;;;;;;5.18;4.00;;;10.80;55.10;;;;;;5004230;28;20681;-78
2021/04/27 07:38:08;;;;;;;4.72;3.40;;;10.90;55.10;;;;;;5010947;28;20214;-78
2021/04/27 07:40:37;;;;;;;4.00;3.60;;;11.00;54.70;;;;;;5010242;28;20197;-78
2021/04/27 07:43:04;;;;;;;4.55;3.30;;;11.10;53.70;;;;;;4993249;28;20276;-78
2021/04/27 07:45:33;;;;;;;5.60;3.80;;;11.30;53.90;;;;;;5012378;28;20569;-78
2021/04/27 07:48:03;;;;;;;5.70;3.75;;;11.40;54.00;;;;;;5003042;28;20227;-78
2021/04/27 07:50:30;;;;;;;4.10;3.70;;;11.50;51.80;;;;;;5010983;28;20666;-78
2021/04/27 07:52:57;;;;;;;5.30;4.00;;;11.60;52.00;;;;;;5011196;28;20307;-78
2021/04/27 07:55:26;;;;;;;6.90;3.80;;;11.70;52.70;;;;;;5011839;28;20212;-78
2021/04/27 07:57:53;;;;;;;4.55;3.45;;;11.90;51.70;;;;;;5007550;28;20214;-78
2021/04/27 08:00:20;;;;;;;4.78;4.15;;;12.00;51.50;;;;;;5012569;28;20193;-78
2021/04/27 08:02:49;;;;;;;6.13;3.80;;;11.90;51.70;;;;;;5006790;28;20696;-78
2021/04/27 08:05:17;;;;;;;5.38;3.97;;;12.10;50.80;;;;;;5025685;28;20517;-78
2021/04/27 08:07:43;;;;;;;7.60;4.77;;;12.30;51.00;;;;;;5010187;28;20752;-77
2021/04/27 08:10:14;;;;;;;5.90;3.30;;;12.50;51.00;;;;;;5035534;28;20507;-78
2021/04/27 08:12:47;;;;;;;3.37;3.10;;;12.80;49.30;;;;;;5003855;28;20564;-78
2021/04/27 08:15:16;;;;;;;3.90;3.60;;;12.90;48.30;;;;;;5010745;28;20432;-78
2021/04/27 08:17:43;;;;;;;3.80;3.17;;;12.90;47.80;;;;;;5006251;28;20527;-78
2021/04/27 08:20:14;;;;;;;5.93;3.00;;;13.10;47.50;;;;;;5009398;28;20437;-78
2021/04/27 08:22:45;;;;;;;3.73;3.40;;;13.30;47.60;;;;;;5025977;28;20866;-78
2021/04/27 08:25:14;;;;;;;3.83;3.50;;;13.50;47.10;;;;;;5006599;28;20453;-78
2021/04/27 08:27:45;;;;;;;5.03;3.67;;;13.60;47.20;;;;;;5009926;28;20468;-78
2021/04/27 08:30:13;;;;;;;6.83;3.87;;;13.70;47.60;;;;;;5011428;28;20549;-78
2021/04/27 08:32:40;;;;;;;5.77;3.57;;;14.10;44.90;;;;;;5011725;28;20539;-78
2021/04/27 08:35:09;;;;;;;3.80;3.50;;;14.30;45.10;;;;;;5009279;28;20437;-78
2021/04/27 08:37:36;;;;;;;3.93;3.47;;;14.60;45.40;;;;;;5025262;28;21018;-78
2021/04/27 08:40:09;;;;;;;4.43;3.90;;;14.80;46.30;;;;;;5003638;28;20446;-79
2021/04/27 08:42:36;;;;;;;4.37;3.43;;;15.00;42.90;;;;;;5007988;28;20851;-78
2021/04/27 08:45:08;;;;;;;6.03;4.00;;;14.90;45.40;;;;;;5008130;28;20448;-77
2021/04/27 08:47:35;;;;;;;3.77;3.37;;;14.90;45.60;;;;;;4998287;28;20465;-78
2021/04/27 08:50:04;;;;;;;4.97;3.70;;;14.90;45.20;;;;;;5015549;28;20431;-78
2021/04/27 08:52:31;;;;;;;3.70;3.40;;;14.80;43.40;;;;;;4991699;28;20477;-78
2021/04/27 08:55:00;;;;;;;7.20;3.57;;;14.80;43.60;;;;;;5006022;28;20872;-78
2021/04/27 08:57:31;;;;;;;7.70;3.03;;;14.80;42.70;;;;;;5007338;28;20907;-78
2021/04/27 08:59:58;;;;;;;5.23;3.23;;;14.70;41.80;;;;;;5007670;28;20441;-78
2021/04/27 09:02:27;;;;;;;3.90;3.60;;;14.70;44.70;;;;;;5007264;28;20864;-78
2021/04/27 09:04:54;;;;;;;3.97;3.57;;;14.80;42.90;;;;;;5008001;28;20503;-78
2021/04/27 09:07:28;;;;;;;3.00;2.73;;;14.80;42.50;;;;;;5010805;28;20509;-78
2021/04/27 09:09:58;;;;;;;4.60;3.37;;;14.80;44.40;;;;;;5008055;28;20430;-78
2021/04/27 09:12:31;;;;;;;3.67;3.37;;;14.90;45.70;;;;;;4989371;28;20480;-78
2021/04/27 09:14:59;;;;;;;5.57;4.00;;;14.80;44.60;;;;;;5007603;28;20512;-78
2021/04/27 09:17:30;;;;;;;5.50;3.80;;;14.60;41.70;;;;;;4993763;28;20457;-78
2021/04/27 09:19:58;;;;;;;4.37;3.70;;;14.40;42.90;;;;;;5007652;28;20491;-78
2021/04/27 09:22:33;;;;;;;5.37;3.53;;;14.40;41.90;;;;;;5012275;28;20567;-78
2021/04/27 09:25:03;;;;;;;6.90;3.57;;;14.40;42.30;;;;;;5010427;28;20452;-78
2021/04/27 09:27:35;;;;;;;4.50;3.60;;;14.60;42.40;;;;;;5010288;28;20481;-78
2021/04/27 09:30:24;;;;;;;6.43;3.13;;;14.70;43.70;;;;;;5011816;28;20436;-78
2021/04/27 09:33:01;;;;;;;5.53;3.40;;;14.70;42.90;;;;;;5011708;28;20508;-78
2021/04/27 09:35:40;;;;;;;4.33;3.93;;;14.60;45.20;;;;;;5010984;28;20486;-78
2021/04/27 09:38:12;;;;;;;5.70;3.63;;;14.70;42.70;;;;;;4992943;28;20495;-78
2021/04/27 09:40:45;;;;;;;4.50;4.07;;;14.50;41.70;;;;;;5009933;28;20527;-78
2021/04/27 09:43:12;;;;;;;4.43;3.73;;;14.50;43.30;;;;;;5010384;28;20467;-78
2021/04/27 09:45:44;;;;;;;5.30;4.33;;;14.60;43.30;;;;;;5010485;28;20855;-78
2021/04/27 09:48:11;;;;;;;4.50;3.20;;;14.60;41.90;;;;;;5011474;28;21032;-78
2021/04/27 09:50:40;;;;;;;6.53;4.60;;;14.60;41.90;;;;;;5011118;28;20525;-78
2021/04/27 09:53:07;;;;;;;5.00;3.57;;;14.80;43.30;;;;;;5011464;28;20468;-78
2021/04/27 09:55:35;;;;;;;6.40;4.40;;;14.80;42.40;;;;;;5006534;28;20548;-78
2021/04/27 09:58:03;;;;;;;4.43;3.70;;;14.80;41.60;;;;;;5011875;28;20879;-78
2021/04/27 10:00:39;;;;;;;5.77;3.80;;;14.80;42.90;;;;;;5009978;28;20810;-78
2021/04/27 10:03:11;;;;;;;5.10;3.93;;;14.80;43.30;;;;;;5009831;28;20578;-78
2021/04/27 10:05:39;;;;;;;6.83;3.90;;;15.00;44.10;;;;;;5004330;28;20560;-78
2021/04/27 10:08:06;;;;;;;4.20;3.80;;;15.20;44.20;;;;;;5010556;28;20569;-78
2021/04/27 10:10:38;;;;;;;6.00;4.00;;;15.30;43.60;;;;;;5010048;28;20448;-78
2021/04/27 10:13:08;;;;;;;6.27;4.60;;;15.40;43.00;;;;;;5009725;28;20484;-78
2021/04/27 10:15:35;;;;;;;4.93;3.63;;;15.30;42.40;;;;;;5012011;28;20468;-78
2021/04/27 10:18:05;;;;;;;4.73;4.07;;;15.30;39.30;;;;;;5009325;28;20983;-78
2021/04/27 10:20:35;;;;;;;4.70;4.23;;;15.20;41.30;;;;;;4999429;28;20497;-78
2021/04/27 10:23:07;;;;;;;4.97;4.27;;;15.20;41.50;;;;;;4997487;28;21009;-78
2021/04/27 10:25:34;;;;;;;7.47;4.50;;;15.20;45.60;;;;;;4989117;28;20978;-78
2021/04/27 10:28:02;;;;;;;5.50;4.50;;;15.20;40.90;;;;;;5011371;28;20472;-78
2021/04/27 10:30:38;;;;;;;3.90;3.53;;;15.20;40.40;;;;;;4993038;28;20439;-78
2021/04/27 10:33:04;;;;;;;7.27;4.50;;;15.20;40.30;;;;;;4998103;28;20494;-78
2021/04/27 10:35:33;;;;;;;4.20;3.80;;;15.10;39.40;;;;;;5026932;28;20488;-79
2021/04/27 10:38:03;;;;;;;5.37;3.87;;;15.10;39.90;;;;;;5010495;28;20646;-78
2021/04/27 10:40:44;;;;;;;5.27;4.10;;;15.10;39.30;;;;;;5008778;28;20437;-79
2021/04/27 10:43:23;;;;;;;6.67;4.37;;;15.20;41.20;;;;;;5012582;28;20485;-78
2021/04/27 10:45:53;;;;;;;4.80;3.83;;;15.20;43.10;;;;;;5010811;28;20489;-78
2021/04/27 10:48:39;;;;;;;6.67;3.87;;;15.30;41.90;;;;;;5011082;28;20461;-78
2021/04/27 10:51:25;;;;;;;7.43;4.13;;;15.30;40.20;;;;;;5021351;28;20446;-78
2021/04/27 10:54:18;;;;;;;6.70;4.30;;;15.30;40.90;;;;;;5008667;28;21025;-78
2021/04/27 10:57:04;;;;;;;4.17;3.77;;;15.50;42.70;;;;;;5007560;28;20473;-78
2021/04/27 10:59:55;;;;;;;6.20;4.10;;;15.50;39.30;;;;;;5006205;28;20868;-78
2021/04/27 11:02:25;;;;;;;7.43;4.70;;;;;;;;;;5010225;28;20501;-78
2021/04/27 11:04:55;;;;;;;5.10;4.67;;;15.70;39.10;;;;;;5002286;28;20545;-78
2021/04/27 11:07:23;;;;;;;4.80;4.30;;;15.90;40.10;;;;;;4996563;28;20466;-78
2021/04/27 11:09:59;;;;;;;4.10;3.70;;;15.90;36.80;;;;;;5008604;28;20852;-78
2021/04/27 11:13:00;;;;;;;5.37;4.80;;;15.80;37.90;;;;;;5022873;28;20481;-78
2021/04/27 11:15:33;;;;;;;7.73;5.10;;;15.70;37.10;;;;;;5008646;28;20460;-78
2021/04/27 11:18:14;;;;;;;5.27;4.73;;;15.70;39.30;;;;;;5005864;28;20503;-78
2021/04/27 11:21:05;;;;;;;4.50;4.10;;;15.90;41.30;;;;;;5022818;28;20442;-78
2021/04/27 11:23:34;;;;;;;4.23;3.83;;;15.90;36.90;;;;;;5005198;28;20574;-78
2021/04/27 11:26:02;;;;;;;5.60;4.33;;;15.90;35.50;;;;;;5000627;28;20488;-78
2021/04/27 11:28:54;;;;;;;10.50;5.23;;;16.00;38.60;;;;;;5009870;28;21074;-78
2021/04/27 11:31:21;;;;;;;13.80;5.30;;;16.00;43.70;;;;;;5010244;28;20442;-78
2021/04/27 11:34:02;;;;;;;5.43;4.30;;;15.90;39.20;;;;;;5007536;28;20470;-78
2021/04/27 11:36:43;;;;;;;5.57;4.57;;;16.20;41.00;;;;;;5010441;28;20558;-78
2021/04/27 11:39:21;;;;;;;8.70;4.90;;;16.20;37.90;;;;;;5010386;28;20469;-78
2021/04/27 11:41:55;;;;;;;7.17;4.93;;;16.10;37.80;;;;;;5009614;28;20859;-78
2021/04/27 11:44:34;;;;;;;7.90;5.67;;;16.20;39.30;;;;;;5009020;28;20463;-78
2021/04/27 11:47:17;;;;;;;6.10;5.03;;;16.30;37.60;;;;;;4999362;28;20487;-78
2021/04/27 11:49:50;;;;;;;7.87;4.90;;;16.50;38.30;;;;;;4997718;28;20434;-78
2021/04/27 11:52:39;;;;;;;7.77;5.80;;;16.50;38.90;;;;;;4997329;28;20909;-78
2021/04/27 11:55:28;;;;;;;9.00;5.40;;;16.60;37.10;;;;;;5005953;28;20454;-78
2021/04/27 11:58:06;;;;;;;7.73;5.37;;;16.70;37.70;;;;;;4957860;28;20504;-78
2021/04/27 12:00:39;;;;;;;8.30;5.50;;;16.60;35.90;;;;;;5009846;28;20523;-78
2021/04/27 12:03:12;;;;;;;6.50;4.40;;;16.40;36.90;;;;;;5008797;28;20482;-78
2021/04/27 12:05:39;;;;;;;5.37;4.60;;;16.50;37.20;;;;;;5009074;28;20482;-78
2021/04/27 12:08:16;;;;;;;8.17;4.70;;;16.60;37.80;;;;;;5007792;28;21007;-78
2021/04/27 12:10:46;;;;;;;5.73;5.23;;;16.70;36.00;;;;;;4998065;28;20452;-78
2021/04/27 12:13:21;;;;;;;6.10;4.30;;;16.60;37.30;;;;;;5027437;28;20557;-78
2021/04/27 12:16:08;;;;;;;5.00;4.50;;;16.60;35.40;;;;;;4994380;28;20452;-78
2021/04/27 12:18:49;;;;;;;5.33;4.83;;;16.70;34.50;;;;;;4985920;28;20472;-78
2021/04/27 12:21:29;;;;;;;7.60;4.67;;;16.60;34.50;;;;;;5009230;28;20464;-78
2021/04/27 12:24:17;;;;;;;4.73;4.33;;;16.70;34.70;;;;;;5009185;28;20482;-78
2021/04/27 12:27:00;;;;;;;7.73;5.30;;;16.80;35.40;;;;;;5004435;28;20480;-78
2021/04/27 12:29:30;;;;;;;10.73;8.90;;;16.80;33.80;;;;;;4990228;28;20447;-78
2021/04/27 12:32:12;;;;;;;8.63;7.07;;;16.70;35.10;;;;;;5008874;28;20833;-77
2021/04/27 12:35:01;;;;;;;5.40;4.90;;;16.70;33.40;;;;;;5007341;28;20451;-78
2021/04/27 12:37:30;;;;;;;5.33;4.17;;;16.80;35.20;;;;;;5008891;28;20483;-78
2021/04/27 12:39:58;;;;;;;5.60;4.67;;;16.80;34.70;;;;;;5007827;28;20486;-79
2021/04/27 12:42:32;;;;;;;8.00;4.53;;;16.80;37.80;;;;;;5008329;28;20470;-78
2021/04/27 12:45:08;;;;;;;7.33;5.33;;;16.80;35.40;;;;;;5009392;28;20519;-78
2021/04/27 12:47:36;;;;;;;6.07;4.57;;;16.80;34.50;;;;;;5007855;28;20926;-78
2021/04/27 12:50:09;;;;;;;6.83;5.10;;;16.90;35.70;;;;;;5008711;28;20930;-78
2021/04/27 12:52:56;;;;;;;5.17;4.40;;;16.90;34.60;;;;;;5023943;28;20485;-78
2021/04/27 12:55:26;;;;;;;7.77;5.00;;;16.90;35.30;;;;;;5007819;28;20672;-78
2021/04/27 12:58:14;;;;;;;7.83;4.73;;;17.00;37.50;;;;;;5008983;28;20460;-78
2021/04/27 13:00:50;;;;;;;5.70;5.17;;;17.00;37.50;;;;;;4998195;28;20935;-78
2021/04/27 13:03:19;;;;;;;6.10;5.30;;;17.20;36.60;;;;;;5009225;28;21064;-78
2021/04/27 13:05:49;;;;;;;5.53;5.00;;;17.20;36.70;;;;;;5008263;28;20496;-78
2021/04/27 13:08:16;;;;;;;6.40;4.70;;;17.30;34.80;;;;;;5008770;28;20465;-78
2021/04/27 13:10:47;;;;;;;5.20;4.70;;;17.30;36.20;;;;;;5008156;28;20499;-78
2021/04/27 13:13:15;;;;;;;5.70;5.10;;;17.20;34.90;;;;;;5003118;28;20572;-78